createdAt,value
2018-05-01T00:06:54.000Z,41.5
2018-05-01T00:16:54.000Z,41.8
2018-05-01T00:26:54.000Z,42.1
2018-05-01T00:36:54.000Z,42.8
2018-05-01T00:46:54.000Z,43
2018-05-01T00:56:54.000Z,43.6
2018-05-01T01:06:54.000Z,43.3
2018-05-01T01:16:54.000Z,43.1
2018-05-01T01:26:54.000Z,43.4
2018-05-01T01:36:54.000Z,43.7
2018-05-01T01:46:54.000Z,43.6
2018-05-01T01:56:54.000Z,44.1
2018-05-01T02:06:54.000Z,44.4
2018-05-01T02:16:54.000Z,43.8
2018-05-01T02:26:54.000Z,44
2018-05-01T02:36:54.000Z,44.7
2018-05-01T02:46:54.000Z,44.3
2018-05-01T02:56:54.000Z,44.2
2018-05-01T03:06:54.000Z,44.7
2018-05-01T03:16:54.000Z,44.3
2018-05-01T03:26:54.000Z,44.4
2018-05-01T03:36:54.000Z,44.8
2018-05-01T03:46:54.000Z,44.2
2018-05-01T03:56:54.000Z,44.1
2018-05-01T04:06:55.000Z,43.8
2018-05-01T04:16:55.000Z,43.8
2018-05-01T04:26:55.000Z,44.2
2018-05-01T04:36:55.000Z,43.8
2018-05-01T04:46:55.000Z,44.1
2018-05-01T04:56:55.000Z,43.4
2018-05-01T05:06:55.000Z,43.4
2018-05-01T05:16:55.000Z,43.4
2018-05-01T05:26:55.000Z,42.8
2018-05-01T05:36:55.000Z,42.7
2018-05-01T05:46:55.000Z,42.7
2018-05-01T05:56:55.000Z,43
2018-05-01T06:06:55.000Z,42.7
2018-05-01T06:16:55.000Z,43
2018-05-01T06:26:55.000Z,43
2018-05-01T06:36:55.000Z,43.3
2018-05-01T06:46:55.000Z,43.3
2018-05-01T06:56:55.000Z,43.6
2018-05-01T07:06:55.000Z,43.4
2018-05-01T07:16:55.000Z,43.2
2018-05-01T07:26:55.000Z,42.8
2018-05-01T07:36:55.000Z,44.9
2018-05-01T07:46:55.000Z,43.5
2018-05-01T07:56:55.000Z,43.5
2018-05-01T08:06:55.000Z,42.8
2018-05-01T08:16:55.000Z,42.8
2018-05-01T08:26:55.000Z,42.9
2018-05-01T08:36:55.000Z,43.2
2018-05-01T08:37:03.000Z,44
2018-05-01T08:47:03.000Z,44
2018-05-01T08:57:03.000Z,44.3
2018-05-01T09:07:03.000Z,44.9
2018-05-01T09:17:03.000Z,45.2
2018-05-01T09:27:04.000Z,45.2
2018-05-01T09:37:03.000Z,45.4
2018-05-01T09:47:03.000Z,45.7
2018-05-01T09:57:03.000Z,45.7
2018-05-01T10:07:03.000Z,45.6
2018-05-01T10:17:03.000Z,45.5
2018-05-01T10:27:03.000Z,45.2
2018-05-01T10:37:03.000Z,45.6
2018-05-01T10:47:03.000Z,45.6
2018-05-01T10:57:03.000Z,45.9
2018-05-01T11:07:03.000Z,46.1
2018-05-01T11:17:03.000Z,45.9
2018-05-01T11:27:03.000Z,45.9
2018-05-01T11:37:03.000Z,45.9
2018-05-01T11:47:03.000Z,46.4
2018-05-01T11:57:03.000Z,47
2018-05-01T12:07:03.000Z,47.6
2018-05-01T12:17:03.000Z,48.3
2018-05-01T12:27:03.000Z,48.7
2018-05-01T12:37:03.000Z,48.8
2018-05-01T12:47:03.000Z,48.6
2018-05-01T12:57:03.000Z,48.3
2018-05-01T13:07:03.000Z,48.2
2018-05-01T13:17:03.000Z,48.3
2018-05-01T13:27:03.000Z,48.2
2018-05-01T13:37:03.000Z,48.3
2018-05-01T13:47:04.000Z,48.2
2018-05-01T13:57:03.000Z,48.1
2018-05-01T14:07:04.000Z,48.3
2018-05-01T14:17:04.000Z,48.2
2018-05-01T14:27:04.000Z,48.3
2018-05-01T14:37:04.000Z,48.3
2018-05-01T14:47:04.000Z,48.3
2018-05-01T14:57:04.000Z,48.3
2018-05-01T15:07:05.000Z,48.3
2018-05-01T15:17:04.000Z,48.2
2018-05-01T15:27:05.000Z,48.5
2018-05-01T15:37:04.000Z,48.5
2018-05-01T15:47:04.000Z,48.5
2018-05-01T15:57:04.000Z,48.4
2018-05-01T16:07:04.000Z,48.5
2018-05-01T16:17:04.000Z,48.5
2018-05-01T16:27:04.000Z,48.5
2018-05-01T16:37:04.000Z,48.4
2018-05-01T16:47:04.000Z,48.7
2018-05-01T16:57:04.000Z,48.8
2018-05-01T17:07:04.000Z,49.2
2018-05-01T17:17:04.000Z,50.2
2018-05-01T17:27:04.000Z,49.2
2018-05-01T17:37:04.000Z,50.1
2018-05-01T17:47:04.000Z,51.1
2018-05-01T17:57:04.000Z,51.4
2018-05-01T18:07:04.000Z,51.5
2018-05-01T18:17:04.000Z,51.4
2018-05-01T18:27:06.000Z,51.3
2018-05-01T18:37:05.000Z,51.3
2018-05-01T18:47:04.000Z,51.2
2018-05-01T18:57:04.000Z,51.2
2018-05-01T19:07:04.000Z,51.3
2018-05-01T19:17:04.000Z,51.2
2018-05-01T19:27:04.000Z,51.3
2018-05-01T19:37:04.000Z,51.1
2018-05-01T19:47:05.000Z,51.1
2018-05-01T19:57:04.000Z,51.1
2018-05-01T20:07:04.000Z,50.2
2018-05-01T20:17:04.000Z,51
2018-05-01T20:27:04.000Z,51.4
2018-05-01T20:37:04.000Z,51.5
2018-05-01T20:47:04.000Z,51.6
2018-05-01T20:57:05.000Z,51.6
2018-05-01T21:07:05.000Z,51.7
2018-05-01T21:17:05.000Z,51.6
2018-05-01T21:27:05.000Z,44.8
2018-05-01T21:37:05.000Z,38.4
2018-05-01T21:47:05.000Z,37.5
2018-05-01T21:57:05.000Z,37
2018-05-01T22:07:06.000Z,36.5
2018-05-01T22:17:05.000Z,36.4
2018-05-01T22:27:05.000Z,36.2
2018-05-01T22:37:05.000Z,36.3
2018-05-01T22:47:05.000Z,36.2
2018-05-01T22:57:05.000Z,36.5
2018-05-01T23:07:05.000Z,36.3
2018-05-01T23:17:05.000Z,36.3
2018-05-01T23:27:05.000Z,36.4
2018-05-01T23:37:05.000Z,36.8
2018-05-01T23:57:05.000Z,36.9
